sensor_id;sensor_type;location;lat;lon;timestamp;temperature;humidity
77839;SHT31;67034;43.226;27.932;2024-02-23T00:00:07;6.07;77.30
77839;SHT31;67034;43.226;27.932;2024-02-23T00:02:33;5.94;77.78
77839;SHT31;67034;43.226;27.932;2024-02-23T00:04:59;5.87;77.85
77839;SHT31;67034;43.226;27.932;2024-02-23T00:07:26;5.76;78.25
77839;SHT31;67034;43.226;27.932;2024-02-23T00:09:51;5.69;78.37
77839;SHT31;67034;43.226;27.932;2024-02-23T00:12:17;5.53;78.46
77839;SHT31;67034;43.226;27.932;2024-02-23T00:14:43;5.55;78.83
77839;SHT31;67034;43.226;27.932;2024-02-23T00:17:09;5.52;78.91
77839;SHT31;67034;43.226;27.932;2024-02-23T00:19:34;5.55;78.99
77839;SHT31;67034;43.226;27.932;2024-02-23T00:22:00;5.58;78.74
77839;SHT31;67034;43.226;27.932;2024-02-23T00:24:27;5.45;78.85
77839;SHT31;67034;43.226;27.932;2024-02-23T00:26:53;5.48;79.09
77839;SHT31;67034;43.226;27.932;2024-02-23T00:29:19;5.55;79.05
77839;SHT31;67034;43.226;27.932;2024-02-23T00:31:45;5.59;78.89
77839;SHT31;67034;43.226;27.932;2024-02-23T00:34:11;5.56;78.91
77839;SHT31;67034;43.226;27.932;2024-02-23T00:36:39;5.40;78.77
77839;SHT31;67034;43.226;27.932;2024-02-23T00:39:05;5.27;79.14
77839;SHT31;67034;43.226;27.932;2024-02-23T00:41:34;5.19;79.32
77839;SHT31;67034;43.226;27.932;2024-02-23T00:44:00;4.97;79.26
77839;SHT31;67034;43.226;27.932;2024-02-23T00:46:25;4.84;79.77
77839;SHT31;67034;43.226;27.932;2024-02-23T00:48:51;4.90;80.07
77839;SHT31;67034;43.226;27.932;2024-02-23T00:51:17;4.90;80.02
77839;SHT31;67034;43.226;27.932;2024-02-23T00:53:43;4.84;80.13
77839;SHT31;67034;43.226;27.932;2024-02-23T00:56:09;4.79;80.43
77839;SHT31;67034;43.226;27.932;2024-02-23T00:58:36;4.91;80.86
77839;SHT31;67034;43.226;27.932;2024-02-23T01:01:02;4.98;80.93
77839;SHT31;67034;43.226;27.932;2024-02-23T01:03:28;5.05;80.84
77839;SHT31;67034;43.226;27.932;2024-02-23T01:05:53;5.08;80.80
77839;SHT31;67034;43.226;27.932;2024-02-23T01:08:19;5.14;80.78
77839;SHT31;67034;43.226;27.932;2024-02-23T01:10:45;5.12;80.56
77839;SHT31;67034;43.226;27.932;2024-02-23T01:13:11;5.21;80.52
77839;SHT31;67034;43.226;27.932;2024-02-23T01:15:38;5.27;80.40
77839;SHT31;67034;43.226;27.932;2024-02-23T01:18:04;5.34;80.34
77839;SHT31;67034;43.226;27.932;2024-02-23T01:20:31;5.45;80.10
77839;SHT31;67034;43.226;27.932;2024-02-23T01:22:57;5.31;79.75
77839;SHT31;67034;43.226;27.932;2024-02-23T01:25:22;5.15;80.18
77839;SHT31;67034;43.226;27.932;2024-02-23T01:27:48;5.14;80.42
77839;SHT31;67034;43.226;27.932;2024-02-23T01:30:14;5.10;80.77
77839;SHT31;67034;43.226;27.932;2024-02-23T01:32:41;5.08;80.69
77839;SHT31;67034;43.226;27.932;2024-02-23T01:35:08;5.01;81.00
77839;SHT31;67034;43.226;27.932;2024-02-23T01:37:34;5.00;81.02
77839;SHT31;67034;43.226;27.932;2024-02-23T01:40:00;5.08;81.27
77839;SHT31;67034;43.226;27.932;2024-02-23T01:42:25;5.18;81.33
77839;SHT31;67034;43.226;27.932;2024-02-23T01:44:51;5.34;81.26
77839;SHT31;67034;43.226;27.932;2024-02-23T01:47:17;5.45;81.28
77839;SHT31;67034;43.226;27.932;2024-02-23T01:49:45;5.49;81.10
77839;SHT31;67034;43.226;27.932;2024-02-23T01:52:12;5.48;80.99
77839;SHT31;67034;43.226;27.932;2024-02-23T01:54:39;5.46;80.97
77839;SHT31;67034;43.226;27.932;2024-02-23T01:57:06;5.49;80.94
77839;SHT31;67034;43.226;27.932;2024-02-23T01:59:34;5.55;81.05
77839;SHT31;67034;43.226;27.932;2024-02-23T02:02:02;5.55;80.81
77839;SHT31;67034;43.226;27.932;2024-02-23T02:04:28;5.59;80.65
77839;SHT31;67034;43.226;27.932;2024-02-23T02:06:56;5.53;80.56
77839;SHT31;67034;43.226;27.932;2024-02-23T02:09:22;5.52;80.54
77839;SHT31;67034;43.226;27.932;2024-02-23T02:11:48;5.55;80.66
77839;SHT31;67034;43.226;27.932;2024-02-23T02:14:14;5.58;80.57
77839;SHT31;67034;43.226;27.932;2024-02-23T02:16:40;5.65;80.46
77839;SHT31;67034;43.226;27.932;2024-02-23T02:19:06;5.63;80.35
77839;SHT31;67034;43.226;27.932;2024-02-23T02:21:31;5.67;80.36
77839;SHT31;67034;43.226;27.932;2024-02-23T02:23:59;5.76;80.31
77839;SHT31;67034;43.226;27.932;2024-02-23T02:26:24;5.79;79.95
77839;SHT31;67034;43.226;27.932;2024-02-23T02:28:50;5.71;79.86
77839;SHT31;67034;43.226;27.932;2024-02-23T02:31:16;5.66;79.82
77839;SHT31;67034;43.226;27.932;2024-02-23T02:33:42;5.59;80.06
77839;SHT31;67034;43.226;27.932;2024-02-23T02:36:08;5.62;80.47
77839;SHT31;67034;43.226;27.932;2024-02-23T02:38:34;5.71;80.63
77839;SHT31;67034;43.226;27.932;2024-02-23T02:41:01;5.79;80.71
77839;SHT31;67034;43.226;27.932;2024-02-23T02:43:27;5.83;80.61
77839;SHT31;67034;43.226;27.932;2024-02-23T02:45:53;5.83;80.72
77839;SHT31;67034;43.226;27.932;2024-02-23T02:48:19;5.77;80.85
77839;SHT31;67034;43.226;27.932;2024-02-23T02:50:44;5.94;81.18
77839;SHT31;67034;43.226;27.932;2024-02-23T02:53:10;6.03;80.88
77839;SHT31;67034;43.226;27.932;2024-02-23T02:55:36;5.93;80.88
77839;SHT31;67034;43.226;27.932;2024-02-23T02:58:04;5.96;81.10
77839;SHT31;67034;43.226;27.932;2024-02-23T03:00:29;5.98;81.27
77839;SHT31;67034;43.226;27.932;2024-02-23T03:02:56;6.13;81.38
77839;SHT31;67034;43.226;27.932;2024-02-23T03:05:22;6.21;81.20
77839;SHT31;67034;43.226;27.932;2024-02-23T03:07:48;6.20;80.97
77839;SHT31;67034;43.226;27.932;2024-02-23T03:10:14;6.18;81.13
77839;SHT31;67034;43.226;27.932;2024-02-23T03:12:39;6.24;81.17
77839;SHT31;67034;43.226;27.932;2024-02-23T03:15:07;6.28;81.23
77839;SHT31;67034;43.226;27.932;2024-02-23T03:17:35;6.29;81.15
77839;SHT31;67034;43.226;27.932;2024-02-23T03:20:01;6.27;81.27
77839;SHT31;67034;43.226;27.932;2024-02-23T03:22:27;6.34;81.32
77839;SHT31;67034;43.226;27.932;2024-02-23T03:24:52;6.10;81.00
77839;SHT31;67034;43.226;27.932;2024-02-23T03:27:18;5.87;81.11
77839;SHT31;67034;43.226;27.932;2024-02-23T03:29:44;5.67;81.25
77839;SHT31;67034;43.226;27.932;2024-02-23T03:32:11;5.59;81.42
77839;SHT31;67034;43.226;27.932;2024-02-23T03:34:37;5.50;81.54
77839;SHT31;67034;43.226;27.932;2024-02-23T03:37:03;5.55;81.83
77839;SHT31;67034;43.226;27.932;2024-02-23T03:39:29;5.60;81.86
77839;SHT31;67034;43.226;27.932;2024-02-23T03:41:55;5.73;82.00
77839;SHT31;67034;43.226;27.932;2024-02-23T03:44:21;5.79;81.75
77839;SHT31;67034;43.226;27.932;2024-02-23T03:46:46;5.81;81.87
77839;SHT31;67034;43.226;27.932;2024-02-23T03:49:13;5.98;81.92
77839;SHT31;67034;43.226;27.932;2024-02-23T03:51:39;6.04;81.66
77839;SHT31;67034;43.226;27.932;2024-02-23T03:54:06;6.01;81.61
77839;SHT31;67034;43.226;27.932;2024-02-23T03:56:37;6.08;81.70
77839;SHT31;67034;43.226;27.932;2024-02-23T03:59:03;6.22;81.69
77839;SHT31;67034;43.226;27.932;2024-02-23T04:01:30;6.29;81.59
77839;SHT31;67034;43.226;27.932;2024-02-23T04:03:55;6.41;81.34
77839;SHT31;67034;43.226;27.932;2024-02-23T04:06:22;6.52;81.23
77839;SHT31;67034;43.226;27.932;2024-02-23T04:08:48;6.62;81.18
77839;SHT31;67034;43.226;27.932;2024-02-23T04:11:14;6.73;81.18
77839;SHT31;67034;43.226;27.932;2024-02-23T04:13:40;6.82;81.18
77839;SHT31;67034;43.226;27.932;2024-02-23T04:16:05;6.79;81.14
77839;SHT31;67034;43.226;27.932;2024-02-23T04:18:31;6.75;81.12
77839;SHT31;67034;43.226;27.932;2024-02-23T04:20:57;6.65;81.06
77839;SHT31;67034;43.226;27.932;2024-02-23T04:23:24;6.59;81.16
77839;SHT31;67034;43.226;27.932;2024-02-23T04:25:50;6.59;81.27
77839;SHT31;67034;43.226;27.932;2024-02-23T04:28:16;6.59;81.21
77839;SHT31;67034;43.226;27.932;2024-02-23T04:30:43;6.65;81.34
77839;SHT31;67034;43.226;27.932;2024-02-23T04:33:08;6.64;80.97
77839;SHT31;67034;43.226;27.932;2024-02-23T04:35:34;6.59;81.01
77839;SHT31;67034;43.226;27.932;2024-02-23T04:38:00;6.61;81.03
77839;SHT31;67034;43.226;27.932;2024-02-23T04:40:27;6.61;81.11
77839;SHT31;67034;43.226;27.932;2024-02-23T04:42:52;6.56;80.88
77839;SHT31;67034;43.226;27.932;2024-02-23T04:45:18;6.55;81.20
77839;SHT31;67034;43.226;27.932;2024-02-23T04:47:44;6.64;81.51
77839;SHT31;67034;43.226;27.932;2024-02-23T04:50:12;6.68;81.56
77839;SHT31;67034;43.226;27.932;2024-02-23T04:52:38;6.49;81.31
77839;SHT31;67034;43.226;27.932;2024-02-23T04:55:04;6.31;81.46
77839;SHT31;67034;43.226;27.932;2024-02-23T04:57:32;6.06;81.46
77839;SHT31;67034;43.226;27.932;2024-02-23T04:59:58;5.89;81.62
77839;SHT31;67034;43.226;27.932;2024-02-23T05:02:24;5.85;82.18
77839;SHT31;67034;43.226;27.932;2024-02-23T05:04:49;5.97;82.19
77839;SHT31;67034;43.226;27.932;2024-02-23T05:07:15;6.01;82.22
77839;SHT31;67034;43.226;27.932;2024-02-23T05:09:41;6.14;82.46
77839;SHT31;67034;43.226;27.932;2024-02-23T05:12:07;6.25;82.41
77839;SHT31;67034;43.226;27.932;2024-02-23T05:14:35;6.20;82.16
77839;SHT31;67034;43.226;27.932;2024-02-23T05:17:00;6.14;82.27
77839;SHT31;67034;43.226;27.932;2024-02-23T05:19:26;6.16;82.36
77839;SHT31;67034;43.226;27.932;2024-02-23T05:21:52;6.28;82.41
77839;SHT31;67034;43.226;27.932;2024-02-23T05:24:18;6.38;82.41
77839;SHT31;67034;43.226;27.932;2024-02-23T05:26:44;6.42;82.09
77839;SHT31;67034;43.226;27.932;2024-02-23T05:29:09;6.22;81.86
77839;SHT31;67034;43.226;27.932;2024-02-23T05:31:47;6.03;81.90
77839;SHT31;67034;43.226;27.932;2024-02-23T05:34:13;5.98;82.29
77839;SHT31;67034;43.226;27.932;2024-02-23T05:36:39;6.04;82.19
77839;SHT31;67034;43.226;27.932;2024-02-23T05:39:05;6.04;82.18
77839;SHT31;67034;43.226;27.932;2024-02-23T05:41:32;6.11;82.20
77839;SHT31;67034;43.226;27.932;2024-02-23T05:43:58;6.20;82.24
77839;SHT31;67034;43.226;27.932;2024-02-23T05:46:24;6.29;82.26
77839;SHT31;67034;43.226;27.932;2024-02-23T05:48:51;6.44;82.25
77839;SHT31;67034;43.226;27.932;2024-02-23T05:51:17;6.61;82.28
77839;SHT31;67034;43.226;27.932;2024-02-23T05:53:43;6.69;82.28
77839;SHT31;67034;43.226;27.932;2024-02-23T05:56:09;6.85;82.35
77839;SHT31;67034;43.226;27.932;2024-02-23T05:58:35;7.03;82.39
77839;SHT31;67034;43.226;27.932;2024-02-23T06:01:01;7.28;82.49
77839;SHT31;67034;43.226;27.932;2024-02-23T06:03:27;7.54;82.29
77839;SHT31;67034;43.226;27.932;2024-02-23T06:05:55;7.75;81.91
77839;SHT31;67034;43.226;27.932;2024-02-23T06:08:20;7.89;81.64
77839;SHT31;67034;43.226;27.932;2024-02-23T06:10:46;8.07;81.50
77839;SHT31;67034;43.226;27.932;2024-02-23T06:13:11;8.26;81.30
77839;SHT31;67034;43.226;27.932;2024-02-23T06:15:37;8.41;81.12
77839;SHT31;67034;43.226;27.932;2024-02-23T06:18:04;8.65;81.01
77839;SHT31;67034;43.226;27.932;2024-02-23T06:20:30;8.91;80.61
77839;SHT31;67034;43.226;27.932;2024-02-23T06:22:57;9.13;80.26
77839;SHT31;67034;43.226;27.932;2024-02-23T06:25:22;9.36;80.00
77839;SHT31;67034;43.226;27.932;2024-02-23T06:27:48;9.63;79.57
77839;SHT31;67034;43.226;27.932;2024-02-23T06:30:14;9.91;79.33
77839;SHT31;67034;43.226;27.932;2024-02-23T06:32:39;10.15;78.47
77839;SHT31;67034;43.226;27.932;2024-02-23T06:35:06;10.36;77.56
77839;SHT31;67034;43.226;27.932;2024-02-23T06:37:32;10.60;77.05
77839;SHT31;67034;43.226;27.932;2024-02-23T06:39:59;10.77;76.24
77839;SHT31;67034;43.226;27.932;2024-02-23T06:42:25;10.98;75.60
77839;SHT31;67034;43.226;27.932;2024-02-23T06:44:51;11.19;75.01
77839;SHT31;67034;43.226;27.932;2024-02-23T06:47:16;11.18;73.78
77839;SHT31;67034;43.226;27.932;2024-02-23T06:49:42;11.24;73.28
77839;SHT31;67034;43.226;27.932;2024-02-23T06:52:08;11.34;73.12
77839;SHT31;67034;43.226;27.932;2024-02-23T06:54:34;11.45;72.79
77839;SHT31;67034;43.226;27.932;2024-02-23T06:57:01;11.54;72.44
77839;SHT31;67034;43.226;27.932;2024-02-23T06:59:28;11.59;71.99
77839;SHT31;67034;43.226;27.932;2024-02-23T07:01:54;11.70;71.87
77839;SHT31;67034;43.226;27.932;2024-02-23T07:04:21;11.85;71.57
77839;SHT31;67034;43.226;27.932;2024-02-23T07:06:46;11.98;71.32
77839;SHT31;67034;43.226;27.932;2024-02-23T07:09:12;12.06;70.80
77839;SHT31;67034;43.226;27.932;2024-02-23T07:11:39;12.10;70.61
77839;SHT31;67034;43.226;27.932;2024-02-23T07:14:08;12.06;70.31
77839;SHT31;67034;43.226;27.932;2024-02-23T07:16:37;12.06;70.30
77839;SHT31;67034;43.226;27.932;2024-02-23T07:19:04;12.16;70.14
77839;SHT31;67034;43.226;27.932;2024-02-23T07:21:31;12.21;69.89
77839;SHT31;67034;43.226;27.932;2024-02-23T07:23:56;12.18;69.61
77839;SHT31;67034;43.226;27.932;2024-02-23T07:26:22;12.18;69.65
77839;SHT31;67034;43.226;27.932;2024-02-23T07:28:48;12.25;69.55
77839;SHT31;67034;43.226;27.932;2024-02-23T07:31:16;12.18;69.64
77839;SHT31;67034;43.226;27.932;2024-02-23T07:33:42;12.25;69.88
77839;SHT31;67034;43.226;27.932;2024-02-23T07:36:14;12.37;69.77
77839;SHT31;67034;43.226;27.932;2024-02-23T07:38:39;12.44;69.57
77839;SHT31;67034;43.226;27.932;2024-02-23T07:41:05;12.52;69.82
77839;SHT31;67034;43.226;27.932;2024-02-23T07:43:31;12.61;69.58
77839;SHT31;67034;43.226;27.932;2024-02-23T07:45:56;12.66;69.40
77839;SHT31;67034;43.226;27.932;2024-02-23T07:48:24;12.69;69.18
77839;SHT31;67034;43.226;27.932;2024-02-23T07:50:49;12.75;69.23
77839;SHT31;67034;43.226;27.932;2024-02-23T07:53:15;12.85;69.12
77839;SHT31;67034;43.226;27.932;2024-02-23T07:55:41;12.97;68.78
77839;SHT31;67034;43.226;27.932;2024-02-23T07:58:06;13.07;68.49
77839;SHT31;67034;43.226;27.932;2024-02-23T08:00:32;13.13;68.34
77839;SHT31;67034;43.226;27.932;2024-02-23T08:03:00;13.17;68.07
77839;SHT31;67034;43.226;27.932;2024-02-23T08:05:27;13.26;67.90
77839;SHT31;67034;43.226;27.932;2024-02-23T08:07:54;13.44;67.79
77839;SHT31;67034;43.226;27.932;2024-02-23T08:10:20;13.51;67.42
77839;SHT31;67034;43.226;27.932;2024-02-23T08:12:46;13.57;66.85
77839;SHT31;67034;43.226;27.932;2024-02-23T08:15:12;13.47;66.56
77839;SHT31;67034;43.226;27.932;2024-02-23T08:17:38;13.41;66.57
77839;SHT31;67034;43.226;27.932;2024-02-23T08:20:05;13.30;66.59
77839;SHT31;67034;43.226;27.932;2024-02-23T08:22:32;13.40;66.63
77839;SHT31;67034;43.226;27.932;2024-02-23T08:24:58;13.53;66.35
77839;SHT31;67034;43.226;27.932;2024-02-23T08:27:24;13.72;66.09
77839;SHT31;67034;43.226;27.932;2024-02-23T08:29:49;13.94;65.49
77839;SHT31;67034;43.226;27.932;2024-02-23T08:32:15;14.16;65.02
77839;SHT31;67034;43.226;27.932;2024-02-23T08:34:42;14.43;64.49
77839;SHT31;67034;43.226;27.932;2024-02-23T08:37:08;14.49;63.63
77839;SHT31;67034;43.226;27.932;2024-02-23T08:39:35;14.51;63.59
77839;SHT31;67034;43.226;27.932;2024-02-23T08:42:02;14.57;63.37
77839;SHT31;67034;43.226;27.932;2024-02-23T08:44:28;14.60;63.23
77839;SHT31;67034;43.226;27.932;2024-02-23T08:46:54;14.73;63.02
77839;SHT31;67034;43.226;27.932;2024-02-23T08:49:20;14.84;62.49
77839;SHT31;67034;43.226;27.932;2024-02-23T08:51:45;14.94;62.12
77839;SHT31;67034;43.226;27.932;2024-02-23T08:54:11;14.77;62.01
77839;SHT31;67034;43.226;27.932;2024-02-23T08:56:39;14.50;62.56
77839;SHT31;67034;43.226;27.932;2024-02-23T08:59:05;14.37;63.23
77839;SHT31;67034;43.226;27.932;2024-02-23T09:01:31;14.41;63.46
77839;SHT31;67034;43.226;27.932;2024-02-23T09:03:56;14.47;63.06
77839;SHT31;67034;43.226;27.932;2024-02-23T09:06:22;14.56;63.00
77839;SHT31;67034;43.226;27.932;2024-02-23T09:08:48;14.68;62.77
77839;SHT31;67034;43.226;27.932;2024-02-23T09:11:14;14.85;62.81
77839;SHT31;67034;43.226;27.932;2024-02-23T09:13:42;15.19;62.51
77839;SHT31;67034;43.226;27.932;2024-02-23T09:16:13;15.49;61.48
77839;SHT31;67034;43.226;27.932;2024-02-23T09:18:40;15.49;60.69
77839;SHT31;67034;43.226;27.932;2024-02-23T09:21:06;15.38;60.77
77839;SHT31;67034;43.226;27.932;2024-02-23T09:23:31;15.39;60.84
77839;SHT31;67034;43.226;27.932;2024-02-23T09:25:59;15.65;60.36
77839;SHT31;67034;43.226;27.932;2024-02-23T09:28:25;15.98;59.75
77839;SHT31;67034;43.226;27.932;2024-02-23T09:30:52;16.17;59.18
77839;SHT31;67034;43.226;27.932;2024-02-23T09:33:17;16.25;58.72
77839;SHT31;67034;43.226;27.932;2024-02-23T09:35:44;16.31;58.14
77839;SHT31;67034;43.226;27.932;2024-02-23T09:38:10;16.31;57.76
77839;SHT31;67034;43.226;27.932;2024-02-23T09:40:35;16.52;57.38
77839;SHT31;67034;43.226;27.932;2024-02-23T09:43:01;16.82;56.47
77839;SHT31;67034;43.226;27.932;2024-02-23T09:45:28;17.09;55.55
77839;SHT31;67034;43.226;27.932;2024-02-23T09:47:57;17.23;54.82
77839;SHT31;67034;43.226;27.932;2024-02-23T09:50:23;17.48;54.51
77839;SHT31;67034;43.226;27.932;2024-02-23T09:52:49;17.69;54.05
77839;SHT31;67034;43.226;27.932;2024-02-23T09:55:18;17.74;53.07
77839;SHT31;67034;43.226;27.932;2024-02-23T09:57:48;17.92;52.83
77839;SHT31;67034;43.226;27.932;2024-02-23T10:00:16;17.83;52.01
77839;SHT31;67034;43.226;27.932;2024-02-23T10:02:43;18.00;51.71
77839;SHT31;67034;43.226;27.932;2024-02-23T10:05:11;18.20;51.60
77839;SHT31;67034;43.226;27.932;2024-02-23T10:07:37;18.43;50.02
77839;SHT31;67034;43.226;27.932;2024-02-23T10:10:06;18.64;49.48
77839;SHT31;67034;43.226;27.932;2024-02-23T10:12:33;18.84;48.88
77839;SHT31;67034;43.226;27.932;2024-02-23T10:14:59;19.04;48.63
77839;SHT31;67034;43.226;27.932;2024-02-23T10:17:24;19.32;48.57
77839;SHT31;67034;43.226;27.932;2024-02-23T10:19:50;19.60;48.28
77839;SHT31;67034;43.226;27.932;2024-02-23T10:22:17;19.69;47.23
77839;SHT31;67034;43.226;27.932;2024-02-23T10:24:43;19.80;47.26
77839;SHT31;67034;43.226;27.932;2024-02-23T10:27:13;19.47;46.94
77839;SHT31;67034;43.226;27.932;2024-02-23T10:29:39;19.25;47.59
77839;SHT31;67034;43.226;27.932;2024-02-23T10:32:05;19.42;47.38
77839;SHT31;67034;43.226;27.932;2024-02-23T10:34:33;19.50;47.42
77839;SHT31;67034;43.226;27.932;2024-02-23T10:37:01;19.67;47.30
77839;SHT31;67034;43.226;27.932;2024-02-23T10:39:30;19.50;47.48
77839;SHT31;67034;43.226;27.932;2024-02-23T10:41:57;19.55;47.82
77839;SHT31;67034;43.226;27.932;2024-02-23T10:44:28;19.73;47.44
77839;SHT31;67034;43.226;27.932;2024-02-23T10:46:54;19.98;47.12
77839;SHT31;67034;43.226;27.932;2024-02-23T10:49:23;20.26;46.54
77839;SHT31;67034;43.226;27.932;2024-02-23T10:51:52;20.49;45.67
77839;SHT31;67034;43.226;27.932;2024-02-23T10:54:18;20.34;44.98
77839;SHT31;67034;43.226;27.932;2024-02-23T10:56:49;20.34;45.72
77839;SHT31;67034;43.226;27.932;2024-02-23T10:59:15;20.41;45.77
77839;SHT31;67034;43.226;27.932;2024-02-23T11:01:45;19.98;46.27
77839;SHT31;67034;43.226;27.932;2024-02-23T11:04:12;19.80;46.87
77839;SHT31;67034;43.226;27.932;2024-02-23T11:06:39;19.97;47.05
77839;SHT31;67034;43.226;27.932;2024-02-23T11:09:06;20.42;46.42
77839;SHT31;67034;43.226;27.932;2024-02-23T11:11:33;20.65;45.89
77839;SHT31;67034;43.226;27.932;2024-02-23T11:14:02;20.36;45.52
77839;SHT31;67034;43.226;27.932;2024-02-23T11:16:31;19.71;46.85
77839;SHT31;67034;43.226;27.932;2024-02-23T11:19:04;19.53;47.73
77839;SHT31;67034;43.226;27.932;2024-02-23T11:21:34;19.55;47.77
77839;SHT31;67034;43.226;27.932;2024-02-23T11:24:03;19.52;47.94
77839;SHT31;67034;43.226;27.932;2024-02-23T11:26:29;19.33;48.17
77839;SHT31;67034;43.226;27.932;2024-02-23T11:28:55;19.14;48.44
77839;SHT31;67034;43.226;27.932;2024-02-23T11:31:23;18.89;49.24
77839;SHT31;67034;43.226;27.932;2024-02-23T11:33:49;18.98;49.50
77839;SHT31;67034;43.226;27.932;2024-02-23T11:36:22;19.36;49.12
77839;SHT31;67034;43.226;27.932;2024-02-23T11:38:48;19.56;48.53
77839;SHT31;67034;43.226;27.932;2024-02-23T11:41:14;19.33;48.06
77839;SHT31;67034;43.226;27.932;2024-02-23T11:43:41;18.99;48.85
77839;SHT31;67034;43.226;27.932;2024-02-23T11:46:07;18.91;49.19
77839;SHT31;67034;43.226;27.932;2024-02-23T11:48:34;18.89;49.20
77839;SHT31;67034;43.226;27.932;2024-02-23T11:51:04;19.02;49.29
77839;SHT31;67034;43.226;27.932;2024-02-23T11:53:29;19.30;48.83
77839;SHT31;67034;43.226;27.932;2024-02-23T11:55:55;19.62;48.47
77839;SHT31;67034;43.226;27.932;2024-02-23T11:58:21;19.94;47.84
77839;SHT31;67034;43.226;27.932;2024-02-23T12:00:47;20.05;47.09
77839;SHT31;67034;43.226;27.932;2024-02-23T12:03:13;20.04;47.24
77839;SHT31;67034;43.226;27.932;2024-02-23T12:05:40;19.69;47.55
77839;SHT31;67034;43.226;27.932;2024-02-23T12:08:06;19.45;47.89
77839;SHT31;67034;43.226;27.932;2024-02-23T12:10:32;19.16;48.51
77839;SHT31;67034;43.226;27.932;2024-02-23T12:12:58;19.08;49.06
77839;SHT31;67034;43.226;27.932;2024-02-23T12:15:25;18.95;49.08
77839;SHT31;67034;43.226;27.932;2024-02-23T12:17:50;19.20;49.21
77839;SHT31;67034;43.226;27.932;2024-02-23T12:20:16;19.57;48.69
77839;SHT31;67034;43.226;27.932;2024-02-23T12:22:43;19.84;48.01
77839;SHT31;67034;43.226;27.932;2024-02-23T12:25:09;19.95;47.56
77839;SHT31;67034;43.226;27.932;2024-02-23T12:27:37;20.10;47.19
77839;SHT31;67034;43.226;27.932;2024-02-23T12:30:03;20.32;46.75
77839;SHT31;67034;43.226;27.932;2024-02-23T12:32:29;20.25;46.57
77839;SHT31;67034;43.226;27.932;2024-02-23T12:34:56;20.22;46.71
77839;SHT31;67034;43.226;27.932;2024-02-23T12:37:21;20.38;46.53
77839;SHT31;67034;43.226;27.932;2024-02-23T12:39:50;20.46;46.42
77839;SHT31;67034;43.226;27.932;2024-02-23T12:42:15;20.77;45.92
77839;SHT31;67034;43.226;27.932;2024-02-23T12:44:41;20.36;46.11
77839;SHT31;67034;43.226;27.932;2024-02-23T12:47:08;20.03;46.76
77839;SHT31;67034;43.226;27.932;2024-02-23T12:49:34;20.00;47.07
77839;SHT31;67034;43.226;27.932;2024-02-23T12:52:00;20.18;46.77
77839;SHT31;67034;43.226;27.932;2024-02-23T12:54:26;20.21;46.65
77839;SHT31;67034;43.226;27.932;2024-02-23T12:56:53;20.22;46.61
77839;SHT31;67034;43.226;27.932;2024-02-23T12:59:19;20.15;46.79
77839;SHT31;67034;43.226;27.932;2024-02-23T13:01:45;20.25;46.68
77839;SHT31;67034;43.226;27.932;2024-02-23T13:04:11;20.05;46.90
77839;SHT31;67034;43.226;27.932;2024-02-23T13:06:40;20.07;46.98
77839;SHT31;67034;43.226;27.932;2024-02-23T13:09:06;20.14;46.91
77839;SHT31;67034;43.226;27.932;2024-02-23T13:11:35;20.36;46.51
77839;SHT31;67034;43.226;27.932;2024-02-23T13:14:04;20.39;46.34
77839;SHT31;67034;43.226;27.932;2024-02-23T13:16:30;20.05;47.04
77839;SHT31;67034;43.226;27.932;2024-02-23T13:18:56;20.28;46.95
77839;SHT31;67034;43.226;27.932;2024-02-23T13:21:22;20.07;46.72
77839;SHT31;67034;43.226;27.932;2024-02-23T13:23:48;20.01;47.09
77839;SHT31;67034;43.226;27.932;2024-02-23T13:26:14;20.11;47.03
77839;SHT31;67034;43.226;27.932;2024-02-23T13:28:40;20.35;46.68
77839;SHT31;67034;43.226;27.932;2024-02-23T13:31:08;20.48;46.47
77839;SHT31;67034;43.226;27.932;2024-02-23T13:33:33;20.68;46.17
77839;SHT31;67034;43.226;27.932;2024-02-23T13:35:59;20.89;45.50
77839;SHT31;67034;43.226;27.932;2024-02-23T13:38:25;20.63;45.93
77839;SHT31;67034;43.226;27.932;2024-02-23T13:40:51;21.19;45.23
77839;SHT31;67034;43.226;27.932;2024-02-23T13:43:17;21.04;44.98
77839;SHT31;67034;43.226;27.932;2024-02-23T13:45:49;20.32;46.19
77839;SHT31;67034;43.226;27.932;2024-02-23T13:48:19;19.83;47.41
77839;SHT31;67034;43.226;27.932;2024-02-23T13:50:45;19.62;48.10
77839;SHT31;67034;43.226;27.932;2024-02-23T13:53:11;20.15;47.34
77839;SHT31;67034;43.226;27.932;2024-02-23T13:55:38;20.04;47.36
77839;SHT31;67034;43.226;27.932;2024-02-23T13:58:04;20.29;47.06
77839;SHT31;67034;43.226;27.932;2024-02-23T14:00:30;20.72;46.60
77839;SHT31;67034;43.226;27.932;2024-02-23T14:02:55;21.75;44.83
77839;SHT31;67034;43.226;27.932;2024-02-23T14:05:23;21.98;44.34
77839;SHT31;67034;43.226;27.932;2024-02-23T14:07:50;22.12;43.87
77839;SHT31;67034;43.226;27.932;2024-02-23T14:10:16;22.41;43.22
77839;SHT31;67034;43.226;27.932;2024-02-23T14:12:42;22.13;43.50
77839;SHT31;67034;43.226;27.932;2024-02-23T14:15:09;21.75;43.94
77839;SHT31;67034;43.226;27.932;2024-02-23T14:17:36;21.51;44.78
77839;SHT31;67034;43.226;27.932;2024-02-23T14:20:02;21.31;44.97
77839;SHT31;67034;43.226;27.932;2024-02-23T14:22:30;21.14;45.33
77839;SHT31;67034;43.226;27.932;2024-02-23T14:24:57;20.66;46.57
77839;SHT31;67034;43.226;27.932;2024-02-23T14:27:22;20.53;47.05
77839;SHT31;67034;43.226;27.932;2024-02-23T14:29:48;21.08;46.03
77839;SHT31;67034;43.226;27.932;2024-02-23T14:32:16;21.13;45.50
77839;SHT31;67034;43.226;27.932;2024-02-23T14:34:42;20.79;46.20
77839;SHT31;67034;43.226;27.932;2024-02-23T14:37:08;21.19;45.60
77839;SHT31;67034;43.226;27.932;2024-02-23T14:39:35;21.11;45.42
77839;SHT31;67034;43.226;27.932;2024-02-23T14:42:01;20.92;45.57
77839;SHT31;67034;43.226;27.932;2024-02-23T14:44:27;20.76;45.92
77839;SHT31;67034;43.226;27.932;2024-02-23T14:46:52;20.26;46.66
77839;SHT31;67034;43.226;27.932;2024-02-23T14:49:18;20.14;47.27
77839;SHT31;67034;43.226;27.932;2024-02-23T14:51:44;20.56;46.41
77839;SHT31;67034;43.226;27.932;2024-02-23T14:54:11;20.43;46.42
77839;SHT31;67034;43.226;27.932;2024-02-23T14:56:38;19.88;47.57
77839;SHT31;67034;43.226;27.932;2024-02-23T14:59:05;19.71;47.69
77839;SHT31;67034;43.226;27.932;2024-02-23T15:01:35;18.81;49.35
77839;SHT31;67034;43.226;27.932;2024-02-23T15:04:00;18.23;51.45
77839;SHT31;67034;43.226;27.932;2024-02-23T15:06:26;17.57;52.84
77839;SHT31;67034;43.226;27.932;2024-02-23T15:08:53;17.51;53.10
77839;SHT31;67034;43.226;27.932;2024-02-23T15:11:19;17.26;53.72
77839;SHT31;67034;43.226;27.932;2024-02-23T15:13:46;17.07;54.12
77839;SHT31;67034;43.226;27.932;2024-02-23T15:16:11;16.96;54.67